createdAt,value
2023-12-30T00:00:49.422Z,96918.59
2023-12-30T00:05:54.386Z,96914.72
2023-12-30T00:10:57.672Z,96918.53
2023-12-30T00:16:01.024Z,96903.56
2023-12-30T00:21:05.929Z,96908.19
2023-12-30T00:26:09.317Z,96910.50
2023-12-30T00:31:22.350Z,96922.41
2023-12-30T00:36:27.103Z,96914.41
2023-12-30T00:41:30.426Z,96917.75
2023-12-30T00:46:33.986Z,96922.59
2023-12-30T00:51:39.052Z,96921.44
2023-12-30T00:56:42.650Z,96923.25
2023-12-30T01:01:46.063Z,96924.84
2023-12-30T01:06:52.100Z,96916.75
2023-12-30T01:11:55.563Z,96925.84
2023-12-30T01:16:59.167Z,96931.34
2023-12-30T01:22:03.973Z,96927.56
2023-12-30T01:27:07.375Z,96921.63
2023-12-30T01:32:10.897Z,96924.13
2023-12-30T01:37:15.993Z,96937.84
2023-12-30T01:42:19.419Z,96931.44
2023-12-30T01:47:23.223Z,96940.63
2023-12-30T01:52:28.550Z,96948.34
2023-12-30T01:57:32.471Z,96952.16
2023-12-30T02:02:35.867Z,96965.75
2023-12-30T02:07:40.759Z,96964.25
2023-12-30T02:12:44.686Z,96963.31
2023-12-30T02:17:49.131Z,96968.28
2023-12-30T02:22:54.722Z,96962.56
2023-12-30T02:27:58.251Z,96961.47
2023-12-30T02:33:02.023Z,96946.69
2023-12-30T02:38:07.204Z,96948.91
2023-12-30T02:43:10.811Z,96937.75
2023-12-30T02:48:14.259Z,96947.56
2023-12-30T02:53:19.098Z,96946.06
2023-12-30T02:58:22.454Z,96950.47
2023-12-30T03:03:25.784Z,96946.06
2023-12-30T03:08:30.434Z,96944.31
2023-12-30T03:13:33.744Z,96934.22
2023-12-30T03:18:37.321Z,96917.63
2023-12-30T03:23:42.425Z,96921.88
2023-12-30T03:28:46.267Z,96930.38
2023-12-30T03:33:49.986Z,96948.81
2023-12-30T03:38:55.767Z,96935.22
2023-12-30T03:43:59.174Z,96923.88
2023-12-30T03:49:02.767Z,96923.41
2023-12-30T03:54:08.065Z,96920.81
2023-12-30T03:59:11.512Z,96928.91
2023-12-30T04:04:14.899Z,96925.09
2023-12-30T04:09:19.755Z,96914.94
2023-12-30T04:14:23.535Z,96916.09
2023-12-30T04:19:27.022Z,96913.53
2023-12-30T04:24:31.699Z,96916.88
2023-12-30T04:29:35.113Z,96927.31
2023-12-30T04:34:38.512Z,96914.63
2023-12-30T04:39:43.271Z,96918.22
2023-12-30T04:44:46.793Z,96912.69
2023-12-30T04:49:50.339Z,96922.59
2023-12-30T04:54:55.653Z,96910.22
2023-12-30T04:59:58.971Z,96909.75
2023-12-30T05:05:02.314Z,96906.25
2023-12-30T05:10:08.761Z,96900.09
2023-12-30T05:15:14.823Z,96899.03
2023-12-30T05:20:19.039Z,96901.88
2023-12-30T05:25:24.380Z,96890.03
2023-12-30T05:30:30.098Z,96904.53
2023-12-30T05:35:34.328Z,96904.41
2023-12-30T05:40:39.512Z,96898.59
2023-12-30T05:45:47.635Z,96895.22
2023-12-30T05:50:51.183Z,96898.97
2023-12-30T05:55:56.004Z,96871.91
2023-12-30T06:00:59.659Z,96881.22
2023-12-30T06:06:03.009Z,96898.75
2023-12-30T06:11:08.230Z,96903.34
2023-12-30T06:16:12.055Z,96906.69
2023-12-30T06:21:15.561Z,96913.00
2023-12-30T06:26:20.549Z,96925.53
2023-12-30T06:31:24.071Z,96919.38
2023-12-30T06:36:27.442Z,96921.34
2023-12-30T06:41:32.084Z,96924.09
2023-12-30T06:46:36.028Z,96923.91
2023-12-30T06:51:39.433Z,96930.91
2023-12-30T06:56:45.412Z,96922.88
2023-12-30T07:01:49.562Z,96917.03
2023-12-30T07:06:53.095Z,96929.25
2023-12-30T07:11:58.044Z,96929.78
2023-12-30T07:17:01.253Z,96920.19
2023-12-30T07:22:05.194Z,96927.53
2023-12-30T07:27:10.149Z,96929.66
2023-12-30T07:32:13.392Z,96925.94
2023-12-30T07:37:16.813Z,96930.03
2023-12-30T07:42:23.538Z,96923.03
2023-12-30T07:47:28.099Z,96933.75
2023-12-30T07:52:31.678Z,96932.94
2023-12-30T07:57:36.582Z,96937.03
2023-12-30T08:02:42.559Z,96936.50
2023-12-30T08:07:46.321Z,96932.91
2023-12-30T08:12:51.795Z,96937.00
2023-12-30T08:17:55.174Z,96934.22
2023-12-30T08:22:58.631Z,96930.13
2023-12-30T08:28:03.442Z,96929.09
2023-12-30T08:33:10.005Z,96926.63
2023-12-30T08:38:13.788Z,96933.13
2023-12-30T08:43:18.566Z,96931.44
2023-12-30T08:48:22.118Z,96935.63
2023-12-30T08:53:26.524Z,96931.50
2023-12-30T08:58:31.340Z,96921.19
2023-12-30T09:03:34.826Z,96924.03
2023-12-30T09:08:38.753Z,96916.75
2023-12-30T09:13:43.750Z,96924.88
2023-12-30T09:18:49.369Z,96927.22
2023-12-30T09:23:53.620Z,96929.41
2023-12-30T09:28:58.792Z,96927.44
2023-12-30T09:34:02.267Z,96920.44
2023-12-30T09:39:07.275Z,96918.81
2023-12-30T09:44:12.684Z,96926.94
2023-12-30T09:49:16.393Z,96928.34
2023-12-30T09:54:20.695Z,96918.34
2023-12-30T09:59:27.677Z,96916.91
2023-12-30T10:04:31.357Z,96917.88
2023-12-30T10:09:34.712Z,96918.03
2023-12-30T10:14:39.529Z,96908.50
2023-12-30T10:19:43.035Z,96902.78
2023-12-30T10:24:46.396Z,96895.66
2023-12-30T10:30:00.652Z,96882.22
2023-12-30T10:35:05.526Z,96873.66
2023-12-30T10:40:11.031Z,96866.06
2023-12-30T10:45:16.440Z,96865.53
2023-12-30T10:50:21.590Z,96857.31
2023-12-30T10:55:27.608Z,96849.31
2023-12-30T11:00:37.470Z,96832.81
2023-12-30T11:05:43.554Z,96819.78
2023-12-30T11:10:47.293Z,96810.50
2023-12-30T11:15:52.397Z,96806.09
2023-12-30T11:20:55.991Z,96795.63
2023-12-30T11:26:01.553Z,96789.78
2023-12-30T11:31:06.711Z,96783.31
2023-12-30T11:36:10.645Z,96776.44
2023-12-30T11:41:13.930Z,96767.56
2023-12-30T11:46:18.733Z,96770.59
2023-12-30T11:51:23.081Z,96758.69
2023-12-30T11:56:26.647Z,96756.69
2023-12-30T12:01:33.946Z,96752.63
2023-12-30T12:06:37.537Z,96730.22
2023-12-30T12:11:41.020Z,96722.34
2023-12-30T12:16:47.565Z,96715.50
2023-12-30T12:21:51.152Z,96703.75
2023-12-30T12:26:55.396Z,96695.47
2023-12-30T12:32:00.662Z,96685.31
2023-12-30T12:37:04.595Z,96680.47
2023-12-30T12:42:18.332Z,96668.53
2023-12-30T12:47:28.403Z,96657.97
2023-12-30T12:52:31.809Z,96654.53
2023-12-30T12:57:35.096Z,96650.06
2023-12-30T13:02:39.847Z,96643.13
2023-12-30T13:07:44.830Z,96638.22
2023-12-30T13:12:48.711Z,96632.13
2023-12-30T13:17:55.243Z,96630.47
2023-12-30T13:22:59.129Z,96624.59
2023-12-30T13:28:04.179Z,96623.34
2023-12-30T13:33:12.023Z,96623.34
2023-12-30T13:38:17.263Z,96616.50
2023-12-30T13:43:22.012Z,96607.78
2023-12-30T13:48:47.329Z,96603.13
2023-12-30T13:53:51.233Z,96598.66
2023-12-30T13:58:58.502Z,96595.44
2023-12-30T14:04:04.821Z,96595.06
2023-12-30T14:09:24.179Z,96588.41
2023-12-30T14:14:28.243Z,96577.47
2023-12-30T14:19:33.225Z,96580.09
2023-12-30T14:24:36.783Z,96576.88
2023-12-30T14:29:40.629Z,96570.81
2023-12-30T14:34:45.492Z,96575.25
2023-12-30T14:39:49.269Z,96566.78
2023-12-30T14:44:52.910Z,96567.44
2023-12-30T14:49:58.056Z,96567.19
2023-12-30T14:55:02.784Z,96562.97
2023-12-30T15:00:10.332Z,96571.28
2023-12-30T15:05:16.655Z,96564.03
2023-12-30T15:10:20.345Z,96560.44
2023-12-30T15:15:24.774Z,96554.59
2023-12-30T15:20:29.727Z,96559.31
2023-12-30T15:25:34.876Z,96550.88
2023-12-30T15:30:38.537Z,96558.19
2023-12-30T15:35:43.809Z,96552.00
2023-12-30T15:40:47.384Z,96562.72
2023-12-30T15:45:50.939Z,96550.84
2023-12-30T15:50:56.064Z,96553.47
2023-12-30T15:55:59.601Z,96546.66
2023-12-30T16:01:03.423Z,96548.53
2023-12-30T16:06:08.558Z,96554.00
2023-12-30T16:11:12.073Z,96552.63
2023-12-30T16:16:16.026Z,96554.66
2023-12-30T16:21:20.937Z,96554.84
2023-12-30T16:26:25.329Z,96557.88
2023-12-30T16:31:28.987Z,96559.69
2023-12-30T16:36:35.300Z,96568.94
2023-12-30T16:41:38.655Z,96568.72
2023-12-30T16:46:42.072Z,96562.63
2023-12-30T16:51:47.176Z,96546.91
2023-12-30T16:56:52.544Z,96555.31
2023-12-30T17:01:56.052Z,96553.03
2023-12-30T17:07:01.193Z,96558.59
2023-12-30T17:12:04.722Z,96554.31
2023-12-30T17:17:08.151Z,96554.09
2023-12-30T17:22:14.126Z,96550.78
2023-12-30T17:27:18.178Z,96563.44
2023-12-30T17:32:21.982Z,96570.47
2023-12-30T17:37:27.233Z,96575.06
2023-12-30T17:42:30.790Z,96572.22
2023-12-30T17:47:35.957Z,96574.00
2023-12-30T17:52:40.761Z,96576.75
2023-12-30T17:57:44.975Z,96568.03
2023-12-30T18:02:51.705Z,96558.72
2023-12-30T18:07:56.932Z,96554.59
2023-12-30T18:13:00.589Z,96546.38
2023-12-30T18:18:04.398Z,96544.09
2023-12-30T18:23:09.370Z,96555.22
2023-12-30T18:28:12.671Z,96544.41
2023-12-30T18:33:16.277Z,96544.41
2023-12-30T18:38:21.355Z,96538.09
2023-12-30T18:43:25.331Z,96540.72
2023-12-30T18:48:28.790Z,96543.97
2023-12-30T18:53:34.045Z,96540.16
2023-12-30T18:58:37.596Z,96532.13
2023-12-30T19:03:41.024Z,96538.97
2023-12-30T19:08:45.729Z,96549.66
2023-12-30T19:13:49.452Z,96532.78
2023-12-30T19:18:53.106Z,96536.81
2023-12-30T19:23:59.669Z,96535.34
2023-12-30T19:29:02.916Z,96529.91
2023-12-30T19:34:06.258Z,96514.22
2023-12-30T19:39:11.543Z,96509.41
2023-12-30T19:44:15.599Z,96516.81
2023-12-30T19:49:21.049Z,96507.31
2023-12-30T19:54:26.775Z,96503.34
2023-12-30T19:59:30.385Z,96491.28
2023-12-30T20:04:33.835Z,96478.50
2023-12-30T20:09:40.123Z,96481.69
2023-12-30T20:14:43.680Z,96469.88
2023-12-30T20:19:47.113Z,96472.31
2023-12-30T20:24:52.327Z,96477.53
2023-12-30T20:29:56.165Z,96476.47
2023-12-30T20:34:59.544Z,96463.41
2023-12-30T20:40:04.676Z,96463.63
2023-12-30T20:45:08.461Z,96463.25
2023-12-30T20:50:11.836Z,96453.22
2023-12-30T20:55:17.294Z,96448.81
2023-12-30T21:00:23.526Z,96447.41
2023-12-30T21:05:27.009Z,96434.28
2023-12-30T21:10:31.813Z,96422.38
2023-12-30T21:15:35.112Z,96416.91
2023-12-30T21:20:38.729Z,96415.66
2023-12-30T21:25:49.267Z,96423.72
2023-12-30T21:30:52.958Z,96407.97
2023-12-30T21:35:56.849Z,96394.69
2023-12-30T21:41:03.264Z,96396.72
2023-12-30T21:46:06.691Z,96381.47
2023-12-30T21:51:10.581Z,96381.47
2023-12-30T21:56:15.338Z,96380.03
2023-12-30T22:01:19.143Z,96364.56
2023-12-30T22:06:23.163Z,96355.78
2023-12-30T22:11:28.867Z,96353.78
2023-12-30T22:16:32.879Z,96349.38
2023-12-30T22:21:36.435Z,96348.31
2023-12-30T22:26:41.169Z,96335.78
2023-12-30T22:31:44.822Z,96337.03
2023-12-30T22:36:48.499Z,96340.84
2023-12-30T22:41:54.321Z,96347.69
2023-12-30T22:46:57.904Z,96336.38
2023-12-30T22:52:01.488Z,96328.38
2023-12-30T22:57:09.833Z,96330.97
2023-12-30T23:02:13.681Z,96320.91
2023-12-30T23:07:17.758Z,96308.38
2023-12-30T23:12:22.642Z,96308.53
2023-12-30T23:17:26.399Z,96293.00
2023-12-30T23:22:29.879Z,96288.16
2023-12-30T23:27:35.074Z,96285.50
2023-12-30T23:32:38.438Z,96276.03
2023-12-30T23:37:42.024Z,96269.56
2023-12-30T23:42:46.876Z,96256.09
2023-12-30T23:47:51.418Z,96249.47
2023-12-30T23:52:54.710Z,96217.50
2023-12-30T23:57:59.881Z,96208.25
